Terminal Aerodrome Forecast
Issued by NWS King Salmon, AK

Home | Current Version | Previous Version | Text Only | Print | Product List | Glossary On
Versions: 1 2 3 4 5 6 7 8 9 10 11 12 13 14
000
FTAK31 PANC 042339
TAFAKN
TAF
PAKN 042339Z 0500/0524 36006KT P6SM SKC
     FM051400 03008KT P6SM SCT050 OVC090
     FM052200 05008KT P6SM -SHSN BKN025=

USA.gov is the U.S. government's official web portal to all federal, state and local government web resources and services.